Time;durP1;ratioP1;P1;durP2;ratioP2;P2;SDS_P1;SDS_P2;PMS_P1;PMS_P2;Temp;Humidity;BMP_temperature;BMP_pressure;BME280_temperature;BME280_humidity;BME280_pressure;Samples;Min_cycle;Max_cycle;Signal;HPM_P1;HPM_P2
2023/09/11 00:01:38;;;;;;;13.32;11.93;;;27.30;85.00;;;;;;5055248;28;20040;-74
2023/09/11 00:04:06;;;;;;;15.00;12.18;;;27.40;84.80;;;;;;5052736;28;20036;-63
2023/09/11 00:06:32;;;;;;;13.48;12.05;;;27.40;84.90;;;;;;5071537;28;21145;-62
2023/09/11 00:09:00;;;;;;;14.35;12.02;;;27.10;84.70;;;;;;5038505;28;20070;-62
2023/09/11 00:11:26;;;;;;;13.50;12.00;;;27.10;84.80;;;;;;5052329;28;20068;-62
2023/09/11 00:13:54;;;;;;;15.35;12.70;;;27.00;84.80;;;;;;5053092;28;20083;-71
2023/09/11 00:16:21;;;;;;;15.00;12.20;;;27.10;83.50;;;;;;5023640;28;20045;-72
2023/09/11 00:18:48;;;;;;;11.50;9.05;;;27.00;84.60;;;;;;5030574;28;20047;-71
2023/09/11 00:21:15;;;;;;;11.70;10.00;;;27.20;84.60;;;;;;5073076;28;20040;-69
2023/09/11 00:23:42;;;;;;;11.32;9.88;;;27.10;83.90;;;;;;5038027;28;20045;-72
2023/09/11 00:26:08;;;;;;;11.90;9.85;;;27.30;84.40;;;;;;5043179;28;20075;-67
2023/09/11 00:28:37;;;;;;;12.60;9.75;;;27.30;84.70;;;;;;5052177;28;20048;-65
2023/09/11 00:31:03;;;;;;;11.20;9.80;;;27.00;84.90;;;;;;5052956;28;20103;-63
2023/09/11 00:33:29;;;;;;;13.30;9.90;;;27.30;84.90;;;;;;5052848;28;20049;-62
2023/09/11 00:35:55;;;;;;;10.57;9.23;;;27.20;84.70;;;;;;5034208;28;20141;-65
2023/09/11 00:38:20;;;;;;;11.60;10.40;;;27.50;84.80;;;;;;5053431;28;20068;-63
2023/09/11 00:40:46;;;;;;;11.60;9.27;;;27.40;84.90;;;;;;5039338;28;20102;-63
2023/09/11 00:43:12;;;;;;;11.32;9.23;;;27.10;84.70;;;;;;5034719;28;20132;-63
2023/09/11 00:49:19;;;;;;;13.02;10.70;;;27.20;83.90;;;;;;5068409;28;20124;-63
2023/09/11 00:51:45;;;;;;;11.93;10.40;;;27.20;84.70;;;;;;5044380;28;20119;-62
2023/09/11 00:54:12;;;;;;;12.63;10.98;;;27.10;84.60;;;;;;5054059;28;20128;-66
2023/09/11 00:56:37;;;;;;;13.65;11.43;;;27.30;84.70;;;;;;5051306;28;20376;-62
2023/09/11 00:59:03;;;;;;;14.57;11.90;;;27.10;84.50;;;;;;5050910;28;20090;-63
2023/09/11 01:01:29;;;;;;;12.13;10.85;;;27.30;84.70;;;;;;5075705;28;20120;-63
2023/09/11 01:03:55;;;;;;;15.15;10.30;;;27.00;84.40;;;;;;5061585;28;20039;-62
2023/09/11 01:06:21;;;;;;;12.65;9.48;;;27.00;84.50;;;;;;5072249;28;20402;-63
2023/09/11 01:08:47;;;;;;;13.30;10.48;;;26.90;84.30;;;;;;5053392;28;20052;-63
2023/09/11 01:11:13;;;;;;;12.98;10.90;;;27.40;84.80;;;;;;5034666;28;20037;-62
2023/09/11 01:13:39;;;;;;;12.00;10.43;;;27.30;84.70;;;;;;5059918;28;20075;-63
2023/09/11 01:16:09;;;;;;;12.23;10.23;;;26.90;84.00;;;;;;5064704;28;20417;-62
2023/09/11 01:18:47;;;;;;;11.10;9.82;;;27.10;84.50;;;;;;5001388;28;20057;-62
2023/09/11 01:21:43;;;;;;;11.00;9.05;;;27.00;83.30;;;;;;5039881;28;20045;-62
2023/09/11 01:24:30;;;;;;;12.60;10.38;;;27.00;83.60;;;;;;5018085;28;20116;-62
2023/09/11 01:27:17;;;;;;;12.38;10.52;;;27.40;83.80;;;;;;5059650;28;20047;-62
2023/09/11 01:29:43;;;;;;;12.93;10.80;;;27.50;84.00;;;;;;5054493;28;20075;-63
2023/09/11 01:32:08;;;;;;;12.75;11.18;;;27.40;84.70;;;;;;5049109;28;20045;-62
2023/09/11 01:34:34;;;;;;;15.10;12.10;;;27.20;85.10;;;;;;5034352;28;20080;-62
2023/09/11 01:37:00;;;;;;;13.18;11.77;;;27.10;84.00;;;;;;5025504;28;20053;-62
2023/09/11 01:39:26;;;;;;;13.63;11.98;;;26.90;84.40;;;;;;5036985;28;20127;-73
2023/09/11 01:41:53;;;;;;;13.02;11.40;;;27.00;84.80;;;;;;5004645;28;20032;-65
2023/09/11 01:44:25;;;;;;;11.82;10.15;;;27.20;85.00;;;;;;5065623;28;20048;-63
2023/09/11 01:46:51;;;;;;;;;;;27.00;83.30;;;;;;5041760;28;20044;-75
2023/09/11 01:49:18;;;;;;;10.35;9.18;;;27.10;85.50;;;;;;5057599;28;19925;-74
2023/09/11 01:51:44;;;;;;;13.38;10.27;;;27.20;84.70;;;;;;5040902;28;20107;-71
2023/09/11 01:54:10;;;;;;;11.13;9.00;;;27.00;84.80;;;;;;5023360;28;20071;-63
2023/09/11 01:56:36;;;;;;;12.43;9.73;;;27.20;84.70;;;;;;5037694;28;20065;-74
2023/09/11 01:59:02;;;;;;;10.70;9.20;;;27.20;84.80;;;;;;5037495;28;20876;-73
2023/09/11 02:01:28;;;;;;;12.27;9.68;;;27.10;84.50;;;;;;5049503;28;20048;-73
2023/09/11 02:03:54;;;;;;;10.68;9.32;;;26.40;83.90;;;;;;5038413;28;20132;-74
2023/09/11 02:06:21;;;;;;;11.38;9.68;;;27.20;84.50;;;;;;5036148;28;20041;-73
2023/09/11 02:08:46;;;;;;;12.13;10.25;;;27.10;85.20;;;;;;5037892;28;20482;-74
2023/09/11 02:11:12;;;;;;;11.38;9.18;;;27.00;84.60;;;;;;5021412;28;20040;-75
2023/09/11 02:13:38;;;;;;;13.57;10.02;;;26.60;84.80;;;;;;5042519;28;20048;-75
2023/09/11 02:16:04;;;;;;;13.05;10.18;;;27.20;84.70;;;;;;5044549;28;20058;-70
2023/09/11 02:18:31;;;;;;;11.23;9.73;;;27.30;84.60;;;;;;5029918;28;20197;-74
2023/09/11 02:20:57;;;;;;;12.60;10.23;;;27.00;84.00;;;;;;5034819;28;20045;-74
2023/09/11 02:23:23;;;;;;;10.73;9.50;;;27.40;84.70;;;;;;5032775;28;20037;-71
2023/09/11 02:25:51;;;;;;;11.57;9.45;;;27.20;84.60;;;;;;5037075;28;20056;-68
2023/09/11 02:28:16;;;;;;;10.68;9.20;;;27.10;85.50;;;;;;5021276;28;20383;-72
2023/09/11 02:30:42;;;;;;;13.07;9.55;;;27.20;84.60;;;;;;5020337;28;20045;-71
2023/09/11 02:33:08;;;;;;;11.35;9.70;;;27.20;84.60;;;;;;5069246;28;20040;-74
2023/09/11 02:35:34;;;;;;;12.13;9.75;;;27.10;84.70;;;;;;5055530;28;20059;-73
2023/09/11 02:38:00;;;;;;;11.65;9.40;;;27.10;84.60;;;;;;5072418;28;20048;-72
2023/09/11 02:40:27;;;;;;;12.00;9.35;;;27.20;84.60;;;;;;5073491;28;20439;-71
2023/09/11 02:42:53;;;;;;;9.13;8.18;;;27.20;84.40;;;;;;5026269;28;20076;-73
2023/09/11 02:45:19;;;;;;;11.07;9.02;;;27.10;84.50;;;;;;5038225;28;20080;-72
2023/09/11 02:47:45;;;;;;;10.65;8.57;;;27.10;84.40;;;;;;5088520;28;20080;-74
2023/09/11 02:50:13;;;;;;;12.15;8.90;;;26.80;84.40;;;;;;5035393;28;20051;-72
2023/09/11 02:52:40;;;;;;;13.98;9.07;;;27.00;84.00;;;;;;4999490;28;20045;-73
2023/09/11 02:55:08;;;;;;;11.68;8.70;;;27.50;85.10;;;;;;5012619;28;20095;-73
2023/09/11 02:57:34;;;;;;;12.32;9.18;;;27.00;84.00;;;;;;5036885;28;20505;-72
2023/09/11 03:00:05;;;;;;;10.55;9.07;;;27.10;84.10;;;;;;5012906;28;20060;-74
2023/09/11 03:02:31;;;;;;;10.73;9.38;;;26.90;84.10;;;;;;5028925;28;20052;-72
2023/09/11 03:04:57;;;;;;;12.90;9.43;;;29.10;85.90;;;;;;5025651;28;20119;-62
2023/09/11 03:07:23;;;;;;;10.77;8.85;;;27.10;84.10;;;;;;5023561;28;20120;-62
2023/09/11 03:09:49;;;;;;;10.48;8.88;;;26.90;84.30;;;;;;5039388;28;20110;-73
2023/09/11 03:12:15;;;;;;;9.80;8.63;;;26.90;84.20;;;;;;5019127;28;20076;-74
2023/09/11 03:14:41;;;;;;;10.18;8.60;;;26.90;84.10;;;;;;5072934;28;20488;-74
2023/09/11 03:17:09;;;;;;;9.85;8.20;;;27.20;84.40;;;;;;5056228;28;20097;-75
2023/09/11 03:19:35;;;;;;;9.15;8.25;;;26.90;84.60;;;;;;5047422;28;20044;-72
2023/09/11 03:22:01;;;;;;;10.57;8.52;;;27.00;84.20;;;;;;5072656;28;20105;-74
2023/09/11 03:24:27;;;;;;;13.63;8.82;;;26.90;83.80;;;;;;5051827;28;20405;-74
2023/09/11 03:26:53;;;;;;;10.15;8.55;;;27.00;84.30;;;;;;5039726;28;20038;-73
2023/09/11 03:29:19;;;;;;;12.55;9.02;;;27.10;84.20;;;;;;5019411;28;20079;-75
2023/09/11 03:31:45;;;;;;;10.73;8.93;;;26.70;84.00;;;;;;5002727;28;20081;-74
2023/09/11 03:34:11;;;;;;;10.82;9.32;;;27.10;84.50;;;;;;5055225;28;20057;-62
2023/09/11 03:36:37;;;;;;;12.05;9.48;;;26.90;84.00;;;;;;5054137;28;20509;-74
2023/09/11 03:39:03;;;;;;;11.60;8.70;;;26.90;84.10;;;;;;5053485;28;20041;-74
2023/09/11 03:41:29;;;;;;;11.55;9.20;;;27.10;84.20;;;;;;5034719;28;20044;-74
2023/09/11 03:43:55;;;;;;;9.10;7.78;;;27.10;84.70;;;;;;5032623;28;20080;-72
2023/09/11 03:46:21;;;;;;;11.25;8.85;;;27.00;84.30;;;;;;5046960;28;20080;-75
2023/09/11 03:48:47;;;;;;;10.25;8.00;;;27.00;84.40;;;;;;5035193;28;20445;-73
2023/09/11 03:51:14;;;;;;;12.55;8.02;;;27.00;85.30;;;;;;5067933;28;20045;-74
2023/09/11 03:53:45;;;;;;;10.13;8.18;;;27.90;85.20;;;;;;5059312;28;20119;-75
2023/09/11 03:56:14;;;;;;;10.38;8.40;;;27.20;84.90;;;;;;5038554;28;20056;-75
2023/09/11 03:58:42;;;;;;;11.88;8.85;;;27.30;84.60;;;;;;5051687;28;20045;-75
2023/09/11 04:01:08;;;;;;;13.52;8.98;;;27.00;84.30;;;;;;5053355;28;20099;-69
2023/09/11 04:03:34;;;;;;;10.27;8.60;;;27.10;84.50;;;;;;5067261;28;20037;-74
2023/09/11 04:06:00;;;;;;;9.95;8.40;;;26.40;83.50;;;;;;5054805;28;20123;-76
2023/09/11 04:08:26;;;;;;;10.93;8.10;;;27.00;84.00;;;;;;5038267;28;20459;-74
2023/09/11 04:10:52;;;;;;;9.82;8.15;;;26.90;84.20;;;;;;5040545;28;20047;-72
2023/09/11 04:13:18;;;;;;;10.40;8.40;;;27.10;84.70;;;;;;5065300;28;20083;-74
2023/09/11 04:15:44;;;;;;;12.18;8.23;;;26.40;83.40;;;;;;5038865;28;20094;-75
2023/09/11 04:18:10;;;;;;;10.15;8.38;;;27.00;83.90;;;;;;5068457;28;20049;-74
2023/09/11 04:20:36;;;;;;;10.68;8.38;;;26.90;84.30;;;;;;5034727;28;20049;-74
2023/09/11 04:23:05;;;;;;;11.45;8.45;;;26.80;83.80;;;;;;5034177;28;20037;-72
2023/09/11 04:25:33;;;;;;;10.93;8.23;;;26.60;83.90;;;;;;5038357;28;20036;-75
2023/09/11 04:27:59;;;;;;;10.45;8.43;;;27.10;84.30;;;;;;5051847;28;20048;-75
2023/09/11 04:30:24;;;;;;;11.55;8.48;;;26.70;83.90;;;;;;5021095;28;20049;-74
2023/09/11 04:32:50;;;;;;;13.93;8.63;;;26.90;83.90;;;;;;5034849;28;20405;-62
2023/09/11 04:35:18;;;;;;;10.13;7.93;;;26.80;83.90;;;;;;5053432;28;20067;-74
2023/09/11 04:37:44;;;;;;;10.45;8.00;;;26.90;84.00;;;;;;5086885;28;20052;-75
2023/09/11 04:40:16;;;;;;;9.98;7.90;;;25.40;82.80;;;;;;5072446;28;20045;-75
2023/09/11 04:42:43;;;;;;;11.25;8.40;;;25.60;81.80;;;;;;5070089;28;20088;-74
2023/09/11 04:45:10;;;;;;;10.50;7.97;;;26.80;83.90;;;;;;5018780;28;20084;-74
2023/09/11 04:47:36;;;;;;;11.35;8.07;;;26.80;84.00;;;;;;5034088;28;20076;-76
2023/09/11 04:50:03;;;;;;;9.98;8.00;;;27.10;85.00;;;;;;5018261;28;20138;-74
2023/09/11 04:52:29;;;;;;;11.57;7.50;;;26.60;84.30;;;;;;5052148;28;20033;-75
2023/09/11 04:54:58;;;;;;;9.88;8.05;;;26.80;84.70;;;;;;5030179;28;20044;-75
2023/09/11 04:57:24;;;;;;;9.93;7.95;;;26.80;84.70;;;;;;5023379;28;20037;-76
2023/09/11 04:59:50;;;;;;;25.05;8.45;;;26.80;84.20;;;;;;5034237;28;20510;-76
2023/09/11 05:02:16;;;;;;;10.95;7.95;;;27.40;84.90;;;;;;5050961;28;20581;-73
2023/09/11 05:04:42;;;;;;;12.23;8.35;;;26.80;84.10;;;;;;5052210;28;20128;-62
2023/09/11 05:07:08;;;;;;;9.25;8.05;;;26.80;83.80;;;;;;5034478;28;20086;-63
2023/09/11 05:09:34;;;;;;;10.95;7.90;;;27.00;83.90;;;;;;5052117;28;20045;-76
2023/09/11 05:12:00;;;;;;;10.18;8.00;;;27.00;83.80;;;;;;5060609;28;20075;-75
2023/09/11 05:14:26;;;;;;;10.05;7.82;;;26.80;87.00;;;;;;5040006;28;20049;-74
2023/09/11 05:16:52;;;;;;;12.98;8.25;;;26.70;84.10;;;;;;5090607;28;20036;-74
2023/09/11 05:19:18;;;;;;;10.38;7.68;;;26.80;84.60;;;;;;5072217;28;20051;-75
2023/09/11 05:21:45;;;;;;;11.18;7.68;;;27.90;85.60;;;;;;5056034;28;20053;-72
2023/09/11 05:24:14;;;;;;;8.25;6.95;;;26.80;83.50;;;;;;5072567;28;20036;-72
2023/09/11 05:26:40;;;;;;;9.82;7.78;;;28.70;85.50;;;;;;5058148;28;20044;-74
2023/09/11 05:29:07;;;;;;;10.63;7.97;;;26.80;84.20;;;;;;5050853;28;20102;-64
2023/09/11 05:31:36;;;;;;;10.73;8.00;;;26.90;83.90;;;;;;5070987;28;20048;-71
2023/09/11 05:34:02;;;;;;;9.68;7.60;;;28.60;84.50;;;;;;5074028;28;20048;-75
2023/09/11 05:36:28;;;;;;;10.95;8.23;;;26.90;83.90;;;;;;5055038;28;20052;-75
2023/09/11 05:38:54;;;;;;;10.95;7.95;;;26.00;82.80;;;;;;5045289;28;20037;-75
2023/09/11 05:41:20;;;;;;;12.30;8.15;;;26.80;83.40;;;;;;5037553;28;20040;-75
2023/09/11 05:43:46;;;;;;;10.75;7.90;;;26.90;83.50;;;;;;5087540;28;20049;-75
2023/09/11 05:46:12;;;;;;;11.15;8.10;;;26.90;83.80;;;;;;5057600;28;20036;-75
2023/09/11 05:48:38;;;;;;;11.35;7.72;;;26.90;83.70;;;;;;5056360;28;20071;-75
2023/09/11 05:51:04;;;;;;;11.98;8.35;;;27.30;84.00;;;;;;5075613;28;20044;-73
2023/09/11 05:53:30;;;;;;;11.85;8.10;;;26.90;83.30;;;;;;5046872;28;20127;-75
2023/09/11 05:55:56;;;;;;;9.90;7.95;;;27.00;83.20;;;;;;5075409;28;20124;-75
2023/09/11 05:59:14;;;;;;;11.10;7.68;;;27.20;83.40;;;;;;5036357;28;20053;-74
2023/09/11 06:01:40;;;;;;;11.00;8.23;;;27.10;82.60;;;;;;5036525;28;20049;-75
2023/09/11 06:04:09;;;;;;;10.85;7.60;;;27.20;83.50;;;;;;5068006;28;20093;-75
2023/09/11 06:06:36;;;;;;;8.98;7.22;;;26.90;81.90;;;;;;5038667;28;20045;-73
2023/09/11 06:09:03;;;;;;;12.50;8.00;;;27.30;83.50;;;;;;5037295;28;20402;-68
2023/09/11 06:11:29;;;;;;;11.18;7.75;;;27.40;83.50;;;;;;5045918;28;20114;-73
2023/09/11 06:13:55;;;;;;;12.48;8.02;;;27.30;83.70;;;;;;5041248;28;20045;-72
2023/09/11 06:16:21;;;;;;;10.27;7.75;;;27.30;83.60;;;;;;5047197;28;20052;-74
2023/09/11 06:18:49;;;;;;;11.95;7.85;;;29.10;84.90;;;;;;5056654;28;20049;-71
2023/09/11 06:21:15;;;;;;;11.27;8.40;;;27.40;83.10;;;;;;5073320;28;20410;-74
2023/09/11 06:23:42;;;;;;;11.55;7.90;;;28.00;84.80;;;;;;5083975;28;20041;-71
2023/09/11 06:26:08;;;;;;;11.00;7.38;;;27.90;83.60;;;;;;5059206;28;20075;-73
2023/09/11 06:28:34;;;;;;;11.32;7.75;;;27.60;83.10;;;;;;5054536;28;20047;-69
2023/09/11 06:31:00;;;;;;;12.45;8.30;;;27.30;82.80;;;;;;5053770;28;20461;-75
2023/09/11 06:33:28;;;;;;;9.60;7.82;;;27.80;82.50;;;;;;5043170;28;20041;-73
2023/09/11 06:35:54;;;;;;;11.13;8.15;;;27.80;81.50;;;;;;5067259;28;20431;-73
2023/09/11 06:38:21;;;;;;;10.65;7.85;;;28.00;82.30;;;;;;5072670;28;20053;-75
2023/09/11 06:40:47;;;;;;;11.00;7.63;;;27.50;81.80;;;;;;5055454;28;20044;-73
2023/09/11 06:43:14;;;;;;;10.48;7.50;;;28.00;82.10;;;;;;5059249;28;20397;-75
2023/09/11 06:45:41;;;;;;;12.52;7.88;;;27.80;81.70;;;;;;5056260;28;20052;-74
2023/09/11 06:48:10;;;;;;;9.70;7.40;;;26.30;80.80;;;;;;5056497;28;20390;-74
2023/09/11 06:50:36;;;;;;;12.50;7.55;;;28.00;81.60;;;;;;5043190;28;20167;-76
2023/09/11 06:53:02;;;;;;;9.93;6.95;;;28.00;81.20;;;;;;5054499;28;20091;-73
2023/09/11 06:55:28;;;;;;;9.30;7.22;;;28.30;80.70;;;;;;5053249;28;20056;-75
2023/09/11 06:57:58;;;;;;;12.52;7.35;;;28.50;81.10;;;;;;5056442;28;20115;-77
2023/09/11 07:00:27;;;;;;;12.05;7.78;;;28.20;81.50;;;;;;5069039;28;20080;-76
2023/09/11 07:02:54;;;;;;;15.75;7.68;;;28.50;81.70;;;;;;5074034;28;20126;-75
2023/09/11 07:05:20;;;;;;;10.75;7.22;;;28.40;80.80;;;;;;5072858;28;20052;-75
2023/09/11 07:07:46;;;;;;;12.50;7.70;;;28.70;80.60;;;;;;5058941;28;20490;-75
2023/09/11 07:10:17;;;;;;;13.13;8.23;;;28.60;80.00;;;;;;5049595;28;20040;-74
2023/09/11 07:12:44;;;;;;;13.57;8.23;;;28.80;80.60;;;;;;5038660;28;20549;-75
2023/09/11 07:15:10;;;;;;;11.35;7.50;;;28.90;80.40;;;;;;5018337;28;20056;-76
2023/09/11 07:17:36;;;;;;;13.50;7.95;;;29.10;80.90;;;;;;5049870;28;20056;-72
2023/09/11 07:20:04;;;;;;;11.32;7.53;;;29.00;80.50;;;;;;5039732;28;20464;-71
2023/09/11 07:22:30;;;;;;;13.93;7.65;;;29.10;80.00;;;;;;5055371;28;20125;-75
2023/09/11 07:24:57;;;;;;;14.98;8.30;;;29.20;80.50;;;;;;5046095;28;20064;-76
2023/09/11 07:27:23;;;;;;;12.57;8.20;;;29.10;80.00;;;;;;5026925;28;20044;-62
2023/09/11 07:29:51;;;;;;;12.75;8.43;;;29.00;79.40;;;;;;5019060;28;20056;-64
2023/09/11 07:32:17;;;;;;;16.00;8.35;;;29.30;78.40;;;;;;5051778;28;20041;-76
2023/09/11 07:34:43;;;;;;;12.20;8.18;;;29.20;79.30;;;;;;5032742;28;20461;-75
2023/09/11 07:37:09;;;;;;;16.75;8.20;;;31.50;80.70;;;;;;5027849;28;20177;-75
2023/09/11 07:39:36;;;;;;;15.85;8.88;;;29.30;79.10;;;;;;5020898;28;20106;-76
2023/09/11 07:42:02;;;;;;;14.63;8.73;;;29.30;79.30;;;;;;5036610;28;20229;-75
2023/09/11 07:44:28;;;;;;;13.10;8.63;;;29.30;80.50;;;;;;5021189;28;20123;-72
2023/09/11 07:46:54;;;;;;;18.35;10.25;;;29.80;80.10;;;;;;5031957;28;20078;-73
2023/09/11 07:49:21;;;;;;;22.77;12.90;;;29.30;79.10;;;;;;5071934;28;20064;-71
2023/09/11 07:51:47;;;;;;;20.33;12.43;;;29.70;79.30;;;;;;5053701;28;20083;-70
2023/09/11 07:54:13;;;;;;;26.38;12.48;;;29.40;78.80;;;;;;5052133;28;20044;-68
2023/09/11 07:56:39;;;;;;;24.08;11.80;;;29.20;79.10;;;;;;5037171;28;20090;-70
2023/09/11 07:59:08;;;;;;;21.98;12.88;;;29.50;79.80;;;;;;5037205;28;20049;-72
2023/09/11 08:01:34;;;;;;;21.67;12.18;;;30.10;80.60;;;;;;5051374;28;20048;-75
2023/09/11 08:04:00;;;;;;;20.23;12.45;;;28.80;81.10;;;;;;5034380;28;20052;-74
2023/09/11 08:06:27;;;;;;;24.38;11.63;;;28.50;80.50;;;;;;5080705;28;20073;-74
2023/09/11 08:08:55;;;;;;;22.25;12.25;;;29.10;81.50;;;;;;5069993;28;20049;-74
2023/09/11 08:11:25;;;;;;;21.17;11.82;;;28.90;80.50;;;;;;5055052;28;20436;-74
2023/09/11 08:13:53;;;;;;;20.77;11.10;;;28.80;81.20;;;;;;5071371;28;20048;-74
2023/09/11 08:16:21;;;;;;;20.65;12.52;;;28.80;82.20;;;;;;5050412;28;20051;-72
2023/09/11 08:18:50;;;;;;;23.23;11.52;;;28.30;80.80;;;;;;5019784;28;20102;-72
2023/09/11 08:21:19;;;;;;;20.67;12.77;;;28.80;81.90;;;;;;5019682;28;20058;-72
2023/09/11 08:23:47;;;;;;;23.67;11.80;;;28.60;82.50;;;;;;5040367;28;20389;-70
2023/09/11 08:26:13;;;;;;;23.00;12.10;;;28.70;82.10;;;;;;5037913;28;20044;-74
2023/09/11 08:28:40;;;;;;;23.92;11.63;;;28.60;82.30;;;;;;5052480;28;20063;-73
2023/09/11 08:31:06;;;;;;;18.88;11.20;;;28.90;82.40;;;;;;5052278;28;20044;-74
2023/09/11 08:33:32;;;;;;;23.92;12.40;;;28.90;82.60;;;;;;5067174;28;20110;-75
2023/09/11 08:36:01;;;;;;;22.70;10.98;;;28.70;81.40;;;;;;5050701;28;20383;-75
2023/09/11 08:38:27;;;;;;;22.90;11.60;;;28.90;81.80;;;;;;5028995;28;20060;-63
2023/09/11 08:40:53;;;;;;;25.67;11.63;;;28.80;82.00;;;;;;5027829;28;20044;-62
2023/09/11 08:43:24;;;;;;;24.30;10.98;;;28.80;82.10;;;;;;5071975;28;20094;-73
2023/09/11 08:45:51;;;;;;;21.57;10.83;;;28.70;82.20;;;;;;5069878;28;20067;-75
2023/09/11 08:48:17;;;;;;;22.55;10.98;;;28.30;81.50;;;;;;5051187;28;20788;-74
2023/09/11 08:50:51;;;;;;;19.77;10.98;;;28.90;82.20;;;;;;5059907;28;20117;-74
2023/09/11 08:53:21;;;;;;;19.25;10.82;;;28.90;82.90;;;;;;5051415;28;20527;-62
2023/09/11 08:55:47;;;;;;;22.23;10.88;;;29.00;82.90;;;;;;5067077;28;20052;-63
2023/09/11 08:58:14;;;;;;;23.65;10.38;;;28.70;82.20;;;;;;5071438;28;20500;-62
2023/09/11 09:00:40;;;;;;;22.35;10.80;;;29.00;82.70;;;;;;5048761;28;20064;-75
2023/09/11 09:03:07;;;;;;;22.20;10.95;;;28.80;82.50;;;;;;5067174;28;20036;-71
2023/09/11 09:05:33;;;;;;;20.85;10.88;;;29.00;82.60;;;;;;5066777;28;20041;-71
2023/09/11 09:08:03;;;;;;;18.60;10.57;;;28.90;82.20;;;;;;5052043;28;20037;-70
2023/09/11 09:10:29;;;;;;;18.10;10.32;;;29.10;82.80;;;;;;5017440;28;20474;-70
2023/09/11 09:12:55;;;;;;;21.02;10.63;;;29.10;82.40;;;;;;5048960;28;20080;-63
2023/09/11 09:15:21;;;;;;;15.52;9.70;;;29.00;82.00;;;;;;5055951;28;20049;-76
2023/09/11 09:17:48;;;;;;;20.15;10.77;;;28.90;82.10;;;;;;5017513;28;20041;-75
2023/09/11 09:20:15;;;;;;;17.08;10.38;;;29.00;82.20;;;;;;5033752;28;20124;-75
2023/09/11 09:22:55;;;;;;;20.65;10.40;;;29.20;82.10;;;;;;5039857;28;20401;-76
2023/09/11 09:25:22;;;;;;;21.23;9.88;;;29.00;82.70;;;;;;5049078;28;20053;-75
2023/09/11 09:27:49;;;;;;;24.13;10.80;;;30.40;83.00;;;;;;5027151;28;20048;-76
2023/09/11 09:30:22;;;;;;;19.58;9.60;;;29.20;82.10;;;;;;5059601;28;20048;-75
2023/09/11 09:32:49;;;;;;;22.23;10.13;;;29.20;80.70;;;;;;5037725;28;20068;-74
2023/09/11 09:35:17;;;;;;;16.98;9.85;;;29.20;82.10;;;;;;5052963;28;20402;-75
2023/09/11 09:37:53;;;;;;;18.15;9.57;;;29.10;81.70;;;;;;5028556;27;20415;-74
2023/09/11 09:40:35;;;;;;;18.50;9.75;;;29.50;81.90;;;;;;5046529;28;20402;-75
2023/09/11 09:43:05;;;;;;;22.50;9.10;;;29.20;79.90;;;;;;5050322;28;20375;-75
2023/09/11 09:45:37;;;;;;;20.65;9.32;;;29.50;81.00;;;;;;5033416;28;20045;-75
2023/09/11 09:48:09;;;;;;;23.02;9.43;;;29.30;80.70;;;;;;5032816;28;20059;-63
2023/09/11 09:50:53;;;;;;;;;;;29.40;80.50;;;;;;5081290;28;20052;-63
2023/09/11 09:53:32;;;;;;;19.40;9.50;;;29.50;79.20;;;;;;5050961;28;19974;-75
2023/09/11 09:56:07;;;;;;;19.23;9.20;;;29.30;78.80;;;;;;5028014;28;20502;-75
2023/09/11 09:58:53;;;;;;;18.67;8.98;;;29.70;80.60;;;;;;5065611;28;20044;-75
2023/09/11 10:01:20;;;;;;;17.95;8.63;;;29.30;79.90;;;;;;5065224;28;20044;-74
2023/09/11 10:03:47;;;;;;;18.25;8.48;;;29.80;79.60;;;;;;5074466;28;20121;-75
2023/09/11 10:06:17;;;;;;;16.95;8.77;;;29.70;79.30;;;;;;5040233;28;20051;-74
2023/09/11 10:08:44;;;;;;;18.60;8.65;;;29.70;79.00;;;;;;5073906;28;20044;-75
2023/09/11 10:11:31;;;;;;;16.35;8.40;;;29.70;78.10;;;;;;5036342;28;20109;-75
2023/09/11 10:13:57;;;;;;;16.95;8.43;;;30.00;79.30;;;;;;5044316;28;20087;-73
2023/09/11 10:16:24;;;;;;;16.20;8.50;;;29.90;78.90;;;;;;5055504;28;20041;-74
2023/09/11 10:18:50;;;;;;;20.10;9.18;;;29.50;78.10;;;;;;5067812;28;20118;-70
2023/09/11 10:21:18;;;;;;;19.00;8.35;;;30.00;78.40;;;;;;5057447;28;20456;-71
2023/09/11 10:23:44;;;;;;;20.60;8.57;;;30.60;78.60;;;;;;5068215;28;20060;-73
2023/09/11 10:26:10;;;;;;;14.50;8.40;;;29.90;78.00;;;;;;5040487;28;20489;-69
2023/09/11 10:28:39;;;;;;;16.50;8.57;;;30.10;78.00;;;;;;5067719;28;20041;-69
2023/09/11 10:31:17;;;;;;;;;;;30.10;78.20;;;;;;5041391;28;20109;-68
2023/09/11 10:33:58;;;;;;;16.00;8.57;;;28.10;75.50;;;;;;5074291;28;19928;-69
2023/09/11 10:36:46;;;;;;;17.75;8.90;;;29.90;78.10;;;;;;5056719;28;20059;-72
2023/09/11 10:39:13;;;;;;;14.82;8.15;;;30.30;76.50;;;;;;5025920;28;20550;-74
2023/09/11 10:41:41;;;;;;;19.15;8.50;;;29.80;76.80;;;;;;5069708;28;20153;-74
2023/09/11 10:44:10;;;;;;;20.55;9.10;;;30.20;77.60;;;;;;5046979;28;20041;-75
2023/09/11 10:46:39;;;;;;;20.60;9.38;;;30.30;77.50;;;;;;5054344;28;20106;-71
2023/09/11 10:49:23;;;;;;;16.77;9.07;;;30.40;77.10;;;;;;5071103;28;20474;-71
2023/09/11 10:51:50;;;;;;;18.88;8.75;;;30.40;78.10;;;;;;5055875;28;20107;-71
2023/09/11 10:54:19;;;;;;;17.35;8.02;;;29.70;76.50;;;;;;5054147;28;20174;-72
2023/09/11 10:56:45;;;;;;;16.98;8.25;;;30.50;77.70;;;;;;5039402;28;20084;-72
2023/09/11 10:59:14;;;;;;;15.43;8.43;;;30.50;77.10;;;;;;5039833;28;20040;-71
2023/09/11 11:01:40;;;;;;;14.25;8.35;;;30.50;77.30;;;;;;5071384;28;20041;-70
2023/09/11 11:04:06;;;;;;;14.70;7.70;;;30.40;77.00;;;;;;5027224;28;20056;-73
2023/09/11 11:06:33;;;;;;;16.25;8.20;;;30.50;77.00;;;;;;5039202;28;20037;-74
2023/09/11 11:08:59;;;;;;;15.95;8.32;;;30.80;76.30;;;;;;5022852;28;20056;-73
2023/09/11 11:11:30;;;;;;;13.20;8.02;;;30.60;76.00;;;;;;5021061;28;20490;-73
2023/09/11 11:14:17;;;;;;;12.82;8.13;;;30.90;75.80;;;;;;5025753;28;20045;-67
2023/09/11 11:17:00;;;;;;;14.63;7.43;;;30.00;73.80;;;;;;5036010;28;20498;-72
2023/09/11 11:19:28;;;;;;;14.32;7.65;;;30.50;74.10;;;;;;5022358;28;20076;-71
2023/09/11 11:21:59;;;;;;;12.70;7.90;;;30.70;75.50;;;;;;5015583;28;20037;-67
2023/09/11 11:24:26;;;;;;;12.85;7.95;;;30.80;75.30;;;;;;5079060;28;20387;-71
2023/09/11 11:26:56;;;;;;;17.63;7.60;;;30.80;75.10;;;;;;5054200;28;20040;-71
2023/09/11 11:29:29;;;;;;;13.95;8.38;;;31.30;75.60;;;;;;5038289;28;20052;-74
2023/09/11 11:31:57;;;;;;;18.65;8.95;;;31.30;75.50;;;;;;5006217;28;20127;-69
2023/09/11 11:34:32;;;;;;;18.45;8.23;;;30.90;75.30;;;;;;5052185;28;20068;-73
2023/09/11 11:36:59;;;;;;;22.08;8.48;;;31.00;74.80;;;;;;5062278;28;20048;-72
2023/09/11 11:39:27;;;;;;;14.90;7.95;;;30.90;73.90;;;;;;5050538;28;20440;-72
2023/09/11 11:41:54;;;;;;;13.95;7.82;;;31.00;73.60;;;;;;5052712;28;20139;-71
2023/09/11 11:44:33;;;;;;;11.00;7.80;;;31.10;74.00;;;;;;5061567;28;20048;-73
2023/09/11 11:46:59;;;;;;;16.77;8.82;;;31.10;73.20;;;;;;5055766;28;20044;-74
2023/09/11 11:49:26;;;;;;;15.73;8.00;;;30.90;73.80;;;;;;5055031;28;20059;-70
2023/09/11 11:51:53;;;;;;;16.73;7.82;;;31.30;74.30;;;;;;5036735;28;20071;-73
2023/09/11 11:54:25;;;;;;;14.48;8.02;;;31.30;74.40;;;;;;5061659;28;20053;-72
2023/09/11 11:56:56;;;;;;;12.35;8.25;;;31.20;73.90;;;;;;5067644;28;20047;-72
2023/09/11 11:59:23;;;;;;;13.07;7.70;;;31.20;73.70;;;;;;5072168;28;20044;-72
2023/09/11 12:01:49;;;;;;;14.48;8.18;;;31.30;73.20;;;;;;5052949;28;20125;-68
2023/09/11 12:04:15;;;;;;;12.73;8.27;;;31.20;73.00;;;;;;5030655;28;20136;-73
2023/09/11 12:06:44;;;;;;;12.48;8.80;;;31.30;73.00;;;;;;5039996;28;20556;-73
2023/09/11 12:09:10;;;;;;;15.10;8.35;;;31.50;72.00;;;;;;5071765;28;20041;-70
2023/09/11 12:11:40;;;;;;;16.67;8.73;;;31.20;72.90;;;;;;5054901;28;20040;-73
2023/09/11 12:14:13;;;;;;;16.98;8.77;;;31.60;73.70;;;;;;5033981;28;20099;-74
2023/09/11 12:16:40;;;;;;;21.27;8.88;;;31.30;73.90;;;;;;5067153;28;20053;-69
2023/09/11 12:19:06;;;;;;;17.90;9.75;;;30.40;73.10;;;;;;5052820;28;20127;-73
2023/09/11 12:21:36;;;;;;;14.90;8.82;;;31.80;73.70;;;;;;5034275;28;20453;-70
2023/09/11 12:24:08;;;;;;;14.18;8.52;;;31.40;72.20;;;;;;5039437;28;20055;-73
2023/09/11 12:26:34;;;;;;;16.98;8.85;;;31.40;72.90;;;;;;5038571;28;20064;-71
2023/09/11 12:29:00;;;;;;;16.02;8.73;;;31.40;73.70;;;;;;5020159;28;20167;-63
2023/09/11 12:31:28;;;;;;;13.55;8.65;;;31.30;73.30;;;;;;5034781;28;20041;-69
2023/09/11 12:33:57;;;;;;;16.10;9.27;;;31.40;72.90;;;;;;5023350;28;20863;-72
2023/09/11 12:36:24;;;;;;;18.08;9.50;;;31.40;73.30;;;;;;5037854;28;20052;-75
2023/09/11 12:38:51;;;;;;;15.45;9.05;;;31.50;72.80;;;;;;5057802;28;20080;-75
2023/09/11 12:41:17;;;;;;;15.77;9.95;;;31.30;73.50;;;;;;5050713;28;20056;-73
2023/09/11 12:43:43;;;;;;;17.95;9.95;;;31.70;74.10;;;;;;5010916;28;20044;-74